sensor_id;sensor_type;location;lat;lon;timestamp;pressure;altitude;pressure_sealevel;temperature;humidity
74578;BME280;63173;49.086;33.418;2022-10-04T00:03:08;99657.63;;;10.57;77.39
74578;BME280;63173;49.086;33.418;2022-10-04T00:05:35;99665.38;;;10.63;77.58
74578;BME280;63173;49.086;33.418;2022-10-04T00:08:21;99663.94;;;10.66;75.91
74578;BME280;63173;49.086;33.418;2022-10-04T00:10:48;99660.25;;;10.62;76.46
74578;BME280;63173;49.086;33.418;2022-10-04T00:13:24;99672.09;;;10.66;76.48
74578;BME280;63173;49.086;33.418;2022-10-04T00:15:50;99670.38;;;10.70;77.37
74578;BME280;63173;49.086;33.418;2022-10-04T00:18:22;99687.31;;;10.67;76.14
74578;BME280;63173;49.086;33.418;2022-10-04T00:25:59;99683.56;;;10.49;78.56
74578;BME280;63173;49.086;33.418;2022-10-04T00:28:27;99684.78;;;10.57;78.94
74578;BME280;63173;49.086;33.418;2022-10-04T00:31:16;99684.56;;;10.53;78.88
74578;BME280;63173;49.086;33.418;2022-10-04T00:44:05;99710.19;;;10.20;83.08
74578;BME280;63173;49.086;33.418;2022-10-04T00:46:35;99704.81;;;10.15;85.82
74578;BME280;63173;49.086;33.418;2022-10-04T00:49:06;99707.69;;;10.05;86.41
74578;BME280;63173;49.086;33.418;2022-10-04T00:54:31;99713.69;;;10.02;86.39
74578;BME280;63173;49.086;33.418;2022-10-04T00:57:05;99715.50;;;9.93;87.03
74578;BME280;63173;49.086;33.418;2022-10-04T00:59:37;99723.41;;;9.89;88.27
74578;BME280;63173;49.086;33.418;2022-10-04T01:02:11;99720.25;;;9.82;88.31
74578;BME280;63173;49.086;33.418;2022-10-04T01:04:59;99727.00;;;9.85;87.70
74578;BME280;63173;49.086;33.418;2022-10-04T01:07:48;99736.31;;;9.79;88.16
74578;BME280;63173;49.086;33.418;2022-10-04T01:10:25;99739.84;;;9.79;87.56
74578;BME280;63173;49.086;33.418;2022-10-04T01:20:36;99744.56;;;9.55;91.75
74578;BME280;63173;49.086;33.418;2022-10-04T01:23:02;99752.69;;;9.55;92.72
74578;BME280;63173;49.086;33.418;2022-10-04T01:25:44;99751.44;;;9.47;92.63
74578;BME280;63173;49.086;33.418;2022-10-04T01:28:10;99756.47;;;9.54;92.65
74578;BME280;63173;49.086;33.418;2022-10-04T01:30:36;99765.28;;;9.65;89.97
74578;BME280;63173;49.086;33.418;2022-10-04T01:33:01;99761.56;;;9.61;90.92
74578;BME280;63173;49.086;33.418;2022-10-04T01:35:27;99759.34;;;9.63;90.35
74578;BME280;63173;49.086;33.418;2022-10-04T01:37:53;99763.59;;;9.69;88.90
74578;BME280;63173;49.086;33.418;2022-10-04T01:40:19;99767.63;;;9.71;89.04
74578;BME280;63173;49.086;33.418;2022-10-04T01:42:49;99776.06;;;9.70;87.82
74578;BME280;63173;49.086;33.418;2022-10-04T01:45:30;99777.16;;;9.69;89.52
74578;BME280;63173;49.086;33.418;2022-10-04T01:48:00;99777.16;;;9.69;87.64
74578;BME280;63173;49.086;33.418;2022-10-04T01:50:29;99788.59;;;9.66;86.72
74578;BME280;63173;49.086;33.418;2022-10-04T01:55:33;99789.47;;;9.61;86.99
74578;BME280;63173;49.086;33.418;2022-10-04T01:58:06;99791.06;;;9.62;86.66
74578;BME280;63173;49.086;33.418;2022-10-04T02:00:37;99795.69;;;9.62;87.91
74578;BME280;63173;49.086;33.418;2022-10-04T02:05:58;99795.75;;;9.57;87.17
74578;BME280;63173;49.086;33.418;2022-10-04T02:08:30;99803.09;;;9.56;87.04
74578;BME280;63173;49.086;33.418;2022-10-04T02:10:58;99802.56;;;9.54;86.80
74578;BME280;63173;49.086;33.418;2022-10-04T02:13:27;99806.09;;;9.55;87.59
74578;BME280;63173;49.086;33.418;2022-10-04T02:15:54;99810.25;;;9.47;87.21
74578;BME280;63173;49.086;33.418;2022-10-04T02:18:21;99807.63;;;9.42;84.74
74578;BME280;63173;49.086;33.418;2022-10-04T02:20:49;99810.34;;;9.42;85.81
74578;BME280;63173;49.086;33.418;2022-10-04T02:23:17;99816.41;;;9.34;82.54
74578;BME280;63173;49.086;33.418;2022-10-04T02:25:43;99819.69;;;9.31;82.62
74578;BME280;63173;49.086;33.418;2022-10-04T02:28:09;99824.31;;;9.30;83.33
74578;BME280;63173;49.086;33.418;2022-10-04T02:30:37;99828.38;;;9.28;82.23
74578;BME280;63173;49.086;33.418;2022-10-04T02:33:03;99823.06;;;9.18;82.05
74578;BME280;63173;49.086;33.418;2022-10-04T02:35:35;99829.50;;;9.27;83.97
74578;BME280;63173;49.086;33.418;2022-10-04T02:38:18;99831.38;;;9.26;83.11
74578;BME280;63173;49.086;33.418;2022-10-04T02:40:56;99832.31;;;9.17;83.33
74578;BME280;63173;49.086;33.418;2022-10-04T02:43:33;99827.19;;;9.15;83.61
74578;BME280;63173;49.086;33.418;2022-10-04T02:46:16;99836.38;;;9.19;83.97
74578;BME280;63173;49.086;33.418;2022-10-04T02:48:46;99831.78;;;9.15;82.45
74578;BME280;63173;49.086;33.418;2022-10-04T02:51:33;99837.28;;;9.10;81.72
74578;BME280;63173;49.086;33.418;2022-10-04T02:56:40;99832.38;;;9.12;82.30
74578;BME280;63173;49.086;33.418;2022-10-04T02:59:06;99844.06;;;9.07;82.65
74578;BME280;63173;49.086;33.418;2022-10-04T03:01:49;99841.72;;;9.01;83.48
74578;BME280;63173;49.086;33.418;2022-10-04T03:04:17;99844.47;;;8.96;82.85
74578;BME280;63173;49.086;33.418;2022-10-04T03:06:45;99840.63;;;9.02;82.95
74578;BME280;63173;49.086;33.418;2022-10-04T03:09:12;99846.66;;;8.94;84.12
74578;BME280;63173;49.086;33.418;2022-10-04T03:11:39;99837.59;;;9.03;82.98
74578;BME280;63173;49.086;33.418;2022-10-04T03:14:11;99836.56;;;8.99;83.97
74578;BME280;63173;49.086;33.418;2022-10-04T03:16:40;99836.53;;;9.04;83.65
74578;BME280;63173;49.086;33.418;2022-10-04T03:19:07;99836.44;;;8.86;83.49
74578;BME280;63173;49.086;33.418;2022-10-04T03:21:36;99838.66;;;8.84;84.07
74578;BME280;63173;49.086;33.418;2022-10-04T03:24:04;99839.13;;;8.86;84.65
74578;BME280;63173;49.086;33.418;2022-10-04T03:26:45;99841.38;;;8.79;83.81
74578;BME280;63173;49.086;33.418;2022-10-04T03:29:13;99842.50;;;8.78;85.37
74578;BME280;63173;49.086;33.418;2022-10-04T03:31:44;99838.16;;;8.77;85.13
74578;BME280;63173;49.086;33.418;2022-10-04T03:34:16;99841.38;;;8.79;84.71
74578;BME280;63173;49.086;33.418;2022-10-04T03:36:43;99847.38;;;8.76;84.90
74578;BME280;63173;49.086;33.418;2022-10-04T03:39:10;99857.09;;;8.77;84.02
74578;BME280;63173;49.086;33.418;2022-10-04T03:41:39;99853.63;;;8.76;84.92
74578;BME280;63173;49.086;33.418;2022-10-04T03:44:12;99851.16;;;8.75;84.03
74578;BME280;63173;49.086;33.418;2022-10-04T03:46:39;99854.22;;;8.68;85.40
74578;BME280;63173;49.086;33.418;2022-10-04T03:49:06;99864.44;;;8.76;84.73
74578;BME280;63173;49.086;33.418;2022-10-04T03:51:33;99865.81;;;8.74;83.29
74578;BME280;63173;49.086;33.418;2022-10-04T03:54:00;99860.09;;;8.75;83.47
74578;BME280;63173;49.086;33.418;2022-10-04T03:56:31;99863.06;;;8.79;84.79
74578;BME280;63173;49.086;33.418;2022-10-04T03:58:58;99862.34;;;8.68;83.84
74578;BME280;63173;49.086;33.418;2022-10-04T04:04:12;99871.00;;;8.70;83.29
74578;BME280;63173;49.086;33.418;2022-10-04T04:09:22;99868.22;;;8.75;82.70
74578;BME280;63173;49.086;33.418;2022-10-04T04:11:50;99866.56;;;8.79;83.71
74578;BME280;63173;49.086;33.418;2022-10-04T04:14:23;99872.28;;;8.78;83.87
74578;BME280;63173;49.086;33.418;2022-10-04T04:16:50;99869.28;;;8.79;83.55
74578;BME280;63173;49.086;33.418;2022-10-04T04:19:18;99867.72;;;8.73;83.39
74578;BME280;63173;49.086;33.418;2022-10-04T04:21:47;99875.28;;;8.76;82.59
74578;BME280;63173;49.086;33.418;2022-10-04T04:24:26;99875.75;;;8.83;83.35
74578;BME280;63173;49.086;33.418;2022-10-04T04:26:56;99884.16;;;8.82;83.56
74578;BME280;63173;49.086;33.418;2022-10-04T04:29:31;99881.16;;;8.83;82.65
74578;BME280;63173;49.086;33.418;2022-10-04T04:32:04;99885.19;;;8.86;81.55
74578;BME280;63173;49.086;33.418;2022-10-04T04:34:34;99896.28;;;8.89;82.89
74578;BME280;63173;49.086;33.418;2022-10-04T04:37:09;99886.22;;;8.90;81.28
74578;BME280;63173;49.086;33.418;2022-10-04T04:39:35;99891.09;;;8.93;80.99
74578;BME280;63173;49.086;33.418;2022-10-04T04:42:19;99905.16;;;8.95;81.04
74578;BME280;63173;49.086;33.418;2022-10-04T04:44:49;99902.22;;;8.91;82.48
74578;BME280;63173;49.086;33.418;2022-10-04T04:49:49;99905.03;;;9.05;80.89
74578;BME280;63173;49.086;33.418;2022-10-04T04:52:16;99906.75;;;8.96;80.08
74578;BME280;63173;49.086;33.418;2022-10-04T04:54:45;99909.56;;;9.14;79.80
74578;BME280;63173;49.086;33.418;2022-10-04T04:57:15;99908.50;;;9.10;80.40
74578;BME280;63173;49.086;33.418;2022-10-04T04:59:44;99909.03;;;9.12;81.00
74578;BME280;63173;49.086;33.418;2022-10-04T05:02:33;99918.34;;;9.01;79.53
74578;BME280;63173;49.086;33.418;2022-10-04T05:05:19;99918.78;;;9.13;78.60
74578;BME280;63173;49.086;33.418;2022-10-04T05:07:45;99926.56;;;9.20;79.89
74578;BME280;63173;49.086;33.418;2022-10-04T05:12:52;99935.06;;;9.37;77.68
74578;BME280;63173;49.086;33.418;2022-10-04T05:15:17;99933.53;;;9.31;78.90
74578;BME280;63173;49.086;33.418;2022-10-04T05:17:43;99939.94;;;9.40;77.37
74578;BME280;63173;49.086;33.418;2022-10-04T05:20:11;99941.22;;;9.42;78.11
74578;BME280;63173;49.086;33.418;2022-10-04T05:22:40;99953.84;;;9.57;76.20
74578;BME280;63173;49.086;33.418;2022-10-04T05:25:21;99954.88;;;9.61;78.58
74578;BME280;63173;49.086;33.418;2022-10-04T05:27:48;99957.94;;;9.55;77.51
74578;BME280;63173;49.086;33.418;2022-10-04T05:30:52;99956.66;;;9.71;77.86
74578;BME280;63173;49.086;33.418;2022-10-04T05:33:25;99966.94;;;9.74;77.07
74578;BME280;63173;49.086;33.418;2022-10-04T05:38:57;99968.59;;;9.93;76.74
74578;BME280;63173;49.086;33.418;2022-10-04T05:43:53;99984.28;;;9.96;75.09
74578;BME280;63173;49.086;33.418;2022-10-04T05:46:22;99983.34;;;9.82;75.92
74578;BME280;63173;49.086;33.418;2022-10-04T05:49:02;99991.63;;;9.96;75.75
74578;BME280;63173;49.086;33.418;2022-10-04T05:51:33;99990.66;;;10.10;75.78
74578;BME280;63173;49.086;33.418;2022-10-04T05:54:03;99986.84;;;10.11;75.71
74578;BME280;63173;49.086;33.418;2022-10-04T05:57:30;99987.88;;;10.15;73.39
74578;BME280;63173;49.086;33.418;2022-10-04T06:05:13;99986.72;;;10.21;74.70
74578;BME280;63173;49.086;33.418;2022-10-04T06:08:01;99997.50;;;10.26;75.07
74578;BME280;63173;49.086;33.418;2022-10-04T06:16:20;99994.00;;;10.45;74.71
74578;BME280;63173;49.086;33.418;2022-10-04T06:24:22;100007.94;;;10.57;74.66
74578;BME280;63173;49.086;33.418;2022-10-04T06:29:38;100023.38;;;10.80;73.10
74578;BME280;63173;49.086;33.418;2022-10-04T06:38:10;100020.00;;;11.20;71.61
74578;BME280;63173;49.086;33.418;2022-10-04T07:02:48;100040.53;;;11.77;68.92
74578;BME280;63173;49.086;33.418;2022-10-04T07:10:47;100042.84;;;11.83;69.14
74578;BME280;63173;49.086;33.418;2022-10-04T07:13:36;100057.59;;;11.96;68.30
74578;BME280;63173;49.086;33.418;2022-10-04T07:24:41;100055.84;;;12.00;68.39
74578;BME280;63173;49.086;33.418;2022-10-04T07:27:13;100061.28;;;12.00;68.16
74578;BME280;63173;49.086;33.418;2022-10-04T07:29:40;100061.50;;;11.90;68.82
74578;BME280;63173;49.086;33.418;2022-10-04T07:32:24;100065.91;;;11.72;68.86
74578;BME280;63173;49.086;33.418;2022-10-04T07:35:03;100064.72;;;11.78;68.31
74578;BME280;63173;49.086;33.418;2022-10-04T07:37:34;100061.34;;;11.68;70.52
74578;BME280;63173;49.086;33.418;2022-10-04T07:40:05;100069.03;;;11.79;70.00
74578;BME280;63173;49.086;33.418;2022-10-04T07:42:39;100070.63;;;11.67;69.74
74578;BME280;63173;49.086;33.418;2022-10-04T07:45:27;100075.75;;;11.68;70.42
74578;BME280;63173;49.086;33.418;2022-10-04T07:48:16;100081.91;;;11.74;70.29
74578;BME280;63173;49.086;33.418;2022-10-04T07:51:18;100097.06;;;11.80;68.77
74578;BME280;63173;49.086;33.418;2022-10-04T07:53:56;100085.59;;;11.64;68.74
74578;BME280;63173;49.086;33.418;2022-10-04T07:56:33;100083.34;;;11.71;69.88
74578;BME280;63173;49.086;33.418;2022-10-04T08:07:18;100092.28;;;11.72;69.46
74578;BME280;63173;49.086;33.418;2022-10-04T08:12:40;100108.41;;;11.68;68.08
74578;BME280;63173;49.086;33.418;2022-10-04T08:15:27;100107.59;;;11.68;69.44
74578;BME280;63173;49.086;33.418;2022-10-04T08:21:02;100108.44;;;11.50;70.30
74578;BME280;63173;49.086;33.418;2022-10-04T08:31:51;100119.16;;;11.60;70.69
74578;BME280;63173;49.086;33.418;2022-10-04T08:34:32;100130.34;;;11.58;70.30
74578;BME280;63173;49.086;33.418;2022-10-04T08:37:27;100125.25;;;11.52;69.50
74578;BME280;63173;49.086;33.418;2022-10-04T09:10:35;100150.88;;;11.83;69.21
74578;BME280;63173;49.086;33.418;2022-10-04T09:24:36;100145.34;;;12.34;68.42
74578;BME280;63173;49.086;33.418;2022-10-04T09:52:32;100192.31;;;11.24;77.70
74578;BME280;63173;49.086;33.418;2022-10-04T10:06:30;100187.81;;;12.62;72.97
74578;BME280;63173;49.086;33.418;2022-10-04T10:36:48;100206.88;;;12.89;63.16
74578;BME280;63173;49.086;33.418;2022-10-04T10:42:25;100211.28;;;12.30;65.21
74578;BME280;63173;49.086;33.418;2022-10-04T10:45:18;100200.63;;;12.02;68.19
74578;BME280;63173;49.086;33.418;2022-10-04T10:48:21;100212.47;;;12.11;68.55
74578;BME280;63173;49.086;33.418;2022-10-04T10:53:45;100232.06;;;12.26;67.33
74578;BME280;63173;49.086;33.418;2022-10-04T10:56:34;100215.16;;;12.43;67.92
74578;BME280;63173;49.086;33.418;2022-10-04T11:05:02;100230.00;;;12.64;67.47
74578;BME280;63173;49.086;33.418;2022-10-04T11:07:46;100227.19;;;12.69;67.70
74578;BME280;63173;49.086;33.418;2022-10-04T11:30:23;100262.09;;;11.52;68.54
74578;BME280;63173;49.086;33.418;2022-10-04T11:41:11;100265.38;;;11.49;69.31
74578;BME280;63173;49.086;33.418;2022-10-04T11:46:46;100275.72;;;11.47;69.08
74578;BME280;63173;49.086;33.418;2022-10-04T12:00:18;100307.94;;;11.59;69.75
74578;BME280;63173;49.086;33.418;2022-10-04T12:03:14;100297.44;;;11.52;69.50
74578;BME280;63173;49.086;33.418;2022-10-04T12:06:15;100295.78;;;11.32;69.17
74578;BME280;63173;49.086;33.418;2022-10-04T12:08:55;100303.44;;;11.30;70.75
74578;BME280;63173;49.086;33.418;2022-10-04T12:18:02;100323.38;;;11.45;70.39
74578;BME280;63173;49.086;33.418;2022-10-04T12:33:48;100337.63;;;11.36;68.77
74578;BME280;63173;49.086;33.418;2022-10-04T12:36:27;100331.38;;;11.36;69.15
74578;BME280;63173;49.086;33.418;2022-10-04T12:44:39;100335.56;;;11.47;69.16
74578;BME280;63173;49.086;33.418;2022-10-04T12:52:27;100340.81;;;11.62;69.25
74578;BME280;63173;49.086;33.418;2022-10-04T12:57:57;100347.66;;;11.60;68.58
74578;BME280;63173;49.086;33.418;2022-10-04T13:00:31;100347.44;;;11.56;69.13
74578;BME280;63173;49.086;33.418;2022-10-04T13:03:10;100349.88;;;11.58;69.08
74578;BME280;63173;49.086;33.418;2022-10-04T13:08:36;100341.81;;;11.48;70.20
74578;BME280;63173;49.086;33.418;2022-10-04T13:17:01;100369.09;;;11.43;71.05
74578;BME280;63173;49.086;33.418;2022-10-04T13:19:42;100358.97;;;11.48;70.31
74578;BME280;63173;49.086;33.418;2022-10-04T13:30:25;100377.94;;;11.53;70.39
74578;BME280;63173;49.086;33.418;2022-10-04T13:38:19;100353.53;;;11.90;68.57
74578;BME280;63173;49.086;33.418;2022-10-04T13:41:02;100350.66;;;12.38;66.34
74578;BME280;63173;49.086;33.418;2022-10-04T13:49:39;100360.63;;;13.20;63.30
74578;BME280;63173;49.086;33.418;2022-10-04T13:52:28;100370.66;;;14.01;60.72
74578;BME280;63173;49.086;33.418;2022-10-04T13:55:26;100373.41;;;13.87;61.61
74578;BME280;63173;49.086;33.418;2022-10-04T13:58:52;100368.09;;;13.69;62.07
74578;BME280;63173;49.086;33.418;2022-10-04T14:01:27;100369.50;;;13.12;62.41
74578;BME280;63173;49.086;33.418;2022-10-04T14:04:08;100379.59;;;12.66;63.78
74578;BME280;63173;49.086;33.418;2022-10-04T14:09:54;100378.88;;;12.42;65.05
74578;BME280;63173;49.086;33.418;2022-10-04T14:31:41;100391.66;;;14.50;58.74
74578;BME280;63173;49.086;33.418;2022-10-04T14:34:44;100395.72;;;14.52;59.47
74578;BME280;63173;49.086;33.418;2022-10-04T14:55:08;100402.25;;;12.10;66.92
74578;BME280;63173;49.086;33.418;2022-10-04T15:00:47;100409.16;;;11.84;68.50
74578;BME280;63173;49.086;33.418;2022-10-04T15:18:03;100422.72;;;11.66;68.54
74578;BME280;63173;49.086;33.418;2022-10-04T15:23:33;100427.72;;;11.54;69.33
74578;BME280;63173;49.086;33.418;2022-10-04T15:40:07;100438.19;;;11.42;69.38
74578;BME280;63173;49.086;33.418;2022-10-04T15:42:57;100442.94;;;11.55;68.85
74578;BME280;63173;49.086;33.418;2022-10-04T15:55:09;100462.25;;;11.29;69.85
74578;BME280;63173;49.086;33.418;2022-10-04T16:11:12;100481.97;;;11.11;70.98
74578;BME280;63173;49.086;33.418;2022-10-04T16:32:08;100498.41;;;10.96;70.79
74578;BME280;63173;49.086;33.418;2022-10-04T17:04:51;100515.84;;;10.95;70.62
74578;BME280;63173;49.086;33.418;2022-10-04T17:10:28;100517.91;;;11.08;70.08
74578;BME280;63173;49.086;33.418;2022-10-04T17:15:46;100515.50;;;11.02;71.84
74578;BME280;63173;49.086;33.418;2022-10-04T17:20:54;100524.16;;;11.09;69.86
74578;BME280;63173;49.086;33.418;2022-10-04T17:38:19;100520.09;;;11.06;70.26
74578;BME280;63173;49.086;33.418;2022-10-04T17:41:02;100529.78;;;11.17;69.07
74578;BME280;63173;49.086;33.418;2022-10-04T17:52:03;100541.06;;;11.01;69.53
74578;BME280;63173;49.086;33.418;2022-10-04T17:54:57;100546.50;;;11.01;69.84
74578;BME280;63173;49.086;33.418;2022-10-04T17:57:57;100545.94;;;11.04;68.47
74578;BME280;63173;49.086;33.418;2022-10-04T18:00:25;100545.38;;;11.07;69.94
74578;BME280;63173;49.086;33.418;2022-10-04T18:03:08;100552.66;;;11.11;69.68
74578;BME280;63173;49.086;33.418;2022-10-04T18:05:45;100552.91;;;11.15;68.75
74578;BME280;63173;49.086;33.418;2022-10-04T18:11:27;100556.50;;;11.10;68.40
74578;BME280;63173;49.086;33.418;2022-10-04T18:16:52;100570.84;;;11.16;68.39
74578;BME280;63173;49.086;33.418;2022-10-04T18:22:11;100580.66;;;11.12;69.43
74578;BME280;63173;49.086;33.418;2022-10-04T18:24:38;100579.84;;;11.11;69.38
74578;BME280;63173;49.086;33.418;2022-10-04T18:29:44;100588.06;;;11.06;69.02
74578;BME280;63173;49.086;33.418;2022-10-04T18:34:54;100592.44;;;11.02;69.15
74578;BME280;63173;49.086;33.418;2022-10-04T18:37:31;100589.13;;;11.05;68.82
74578;BME280;63173;49.086;33.418;2022-10-04T18:42:41;100593.78;;;11.05;68.40
74578;BME280;63173;49.086;33.418;2022-10-04T18:45:21;100607.63;;;11.03;69.04
74578;BME280;63173;49.086;33.418;2022-10-04T18:47:48;100606.56;;;11.04;68.02
74578;BME280;63173;49.086;33.418;2022-10-04T18:56:01;100600.59;;;11.02;69.20
74578;BME280;63173;49.086;33.418;2022-10-04T19:01:47;100611.16;;;11.09;68.97
74578;BME280;63173;49.086;33.418;2022-10-04T19:06:57;100601.94;;;11.05;67.78
74578;BME280;63173;49.086;33.418;2022-10-04T19:12:20;100612.81;;;11.05;68.25
74578;BME280;63173;49.086;33.418;2022-10-04T19:15:06;100625.53;;;11.09;68.98
74578;BME280;63173;49.086;33.418;2022-10-04T19:17:44;100617.41;;;11.04;68.16
74578;BME280;63173;49.086;33.418;2022-10-04T19:25:45;100626.34;;;11.10;68.87
74578;BME280;63173;49.086;33.418;2022-10-04T19:28:19;100635.34;;;11.05;69.02
74578;BME280;63173;49.086;33.418;2022-10-04T19:43:56;100647.09;;;10.96;70.24
74578;BME280;63173;49.086;33.418;2022-10-04T19:46:42;100640.56;;;10.97;70.37
74578;BME280;63173;49.086;33.418;2022-10-04T19:49:33;100645.47;;;10.95;70.10
74578;BME280;63173;49.086;33.418;2022-10-04T19:52:33;100651.44;;;10.97;71.22
74578;BME280;63173;49.086;33.418;2022-10-04T19:57:50;100649.56;;;10.92;71.27
74578;BME280;63173;49.086;33.418;2022-10-04T20:00:16;100638.47;;;10.84;72.13
74578;BME280;63173;49.086;33.418;2022-10-04T20:02:44;100653.13;;;10.88;70.98
74578;BME280;63173;49.086;33.418;2022-10-04T20:05:14;100640.66;;;10.82;70.88
74578;BME280;63173;49.086;33.418;2022-10-04T20:07:50;100652.03;;;10.89;71.58
74578;BME280;63173;49.086;33.418;2022-10-04T20:10:29;100650.47;;;10.78;72.54
74578;BME280;63173;49.086;33.418;2022-10-04T20:18:00;100653.75;;;10.75;72.13
74578;BME280;63173;49.086;33.418;2022-10-04T20:23:08;100659.44;;;10.78;71.20
74578;BME280;63173;49.086;33.418;2022-10-04T20:28:09;100648.31;;;10.70;73.75
74578;BME280;63173;49.086;33.418;2022-10-04T20:30:56;100651.84;;;10.70;73.87
74578;BME280;63173;49.086;33.418;2022-10-04T20:33:45;100653.75;;;10.70;72.64
74578;BME280;63173;49.086;33.418;2022-10-04T20:43:55;100658.44;;;10.59;73.22
74578;BME280;63173;49.086;33.418;2022-10-04T20:46:22;100654.06;;;10.58;74.50
74578;BME280;63173;49.086;33.418;2022-10-04T20:48:49;100662.53;;;10.52;74.65
74578;BME280;63173;49.086;33.418;2022-10-04T20:51:15;100659.53;;;10.53;73.64
74578;BME280;63173;49.086;33.418;2022-10-04T20:53:43;100671.75;;;10.51;75.80
74578;BME280;63173;49.086;33.418;2022-10-04T20:56:31;100673.69;;;10.45;74.02
74578;BME280;63173;49.086;33.418;2022-10-04T20:59:00;100669.31;;;10.49;74.31
74578;BME280;63173;49.086;33.418;2022-10-04T21:01:33;100672.84;;;10.50;75.87
74578;BME280;63173;49.086;33.418;2022-10-04T21:04:23;100675.84;;;10.48;75.49
74578;BME280;63173;49.086;33.418;2022-10-04T21:07:16;100678.00;;;10.51;75.80
74578;BME280;63173;49.086;33.418;2022-10-04T21:09:41;100680.44;;;10.53;76.20
74578;BME280;63173;49.086;33.418;2022-10-04T21:18:01;100683.75;;;10.39;75.07
74578;BME280;63173;49.086;33.418;2022-10-04T21:23:29;100693.53;;;10.40;75.08
74578;BME280;63173;49.086;33.418;2022-10-04T21:26:22;100693.53;;;10.35;77.24
74578;BME280;63173;49.086;33.418;2022-10-04T21:28:52;100680.50;;;10.32;76.24
74578;BME280;63173;49.086;33.418;2022-10-04T21:31:18;100689.47;;;10.28;75.87
74578;BME280;63173;49.086;33.418;2022-10-04T21:33:43;100694.63;;;10.24;75.71
74578;BME280;63173;49.086;33.418;2022-10-04T21:36:09;100685.69;;;10.19;77.88
74578;BME280;63173;49.086;33.418;2022-10-04T21:38:34;100688.94;;;10.21;77.10
74578;BME280;63173;49.086;33.418;2022-10-04T21:41:00;100687.06;;;10.11;77.76
74578;BME280;63173;49.086;33.418;2022-10-04T21:43:25;100688.16;;;10.10;77.92
74578;BME280;63173;49.086;33.418;2022-10-04T21:45:51;100688.66;;;10.07;76.49
74578;BME280;63173;49.086;33.418;2022-10-04T21:48:16;100693.59;;;10.10;78.59
74578;BME280;63173;49.086;33.418;2022-10-04T21:50:45;100694.91;;;10.08;77.86
74578;BME280;63173;49.086;33.418;2022-10-04T21:53:11;100695.75;;;9.98;78.71
74578;BME280;63173;49.086;33.418;2022-10-04T21:55:37;100693.00;;;10.03;76.67
74578;BME280;63173;49.086;33.418;2022-10-04T21:58:03;100689.50;;;9.93;78.07
74578;BME280;63173;49.086;33.418;2022-10-04T22:00:28;100691.13;;;9.89;79.34
74578;BME280;63173;49.086;33.418;2022-10-04T22:02:53;100690.31;;;9.83;79.18
74578;BME280;63173;49.086;33.418;2022-10-04T22:05:19;100693.84;;;9.89;77.27
74578;BME280;63173;49.086;33.418;2022-10-04T22:07:44;100693.31;;;9.87;78.98
74578;BME280;63173;49.086;33.418;2022-10-04T22:10:10;100689.22;;;9.84;78.77
74578;BME280;63173;49.086;33.418;2022-10-04T22:12:35;100697.66;;;9.73;78.31
74578;BME280;63173;49.086;33.418;2022-10-04T22:15:00;100695.75;;;9.73;80.37
74578;BME280;63173;49.086;33.418;2022-10-04T22:17:26;100696.28;;;9.70;79.04
74578;BME280;63173;49.086;33.418;2022-10-04T22:19:51;100693.06;;;9.63;79.46
74578;BME280;63173;49.086;33.418;2022-10-04T22:22:17;100692.47;;;9.56;80.27
74578;BME280;63173;49.086;33.418;2022-10-04T22:24:43;100696.84;;;9.57;79.47
74578;BME280;63173;49.086;33.418;2022-10-04T22:27:13;100705.25;;;9.56;79.91
74578;BME280;63173;49.086;33.418;2022-10-04T22:29:40;100695.19;;;9.51;81.31
74578;BME280;63173;49.086;33.418;2022-10-04T22:34:52;100698.72;;;9.41;80.34
74578;BME280;63173;49.086;33.418;2022-10-04T22:37:23;100704.13;;;9.41;80.66
74578;BME280;63173;49.086;33.418;2022-10-04T22:39:50;100707.13;;;9.40;80.87
74578;BME280;63173;49.086;33.418;2022-10-04T22:42:16;100707.91;;;9.35;80.88
74578;BME280;63173;49.086;33.418;2022-10-04T22:44:41;100711.69;;;9.29;81.88
74578;BME280;63173;49.086;33.418;2022-10-04T22:47:12;100707.91;;;9.35;80.23
74578;BME280;63173;49.086;33.418;2022-10-04T22:49:41;100716.28;;;9.24;81.88
74578;BME280;63173;49.086;33.418;2022-10-04T22:52:16;100715.50;;;9.23;82.14
74578;BME280;63173;49.086;33.418;2022-10-04T22:54:44;100719.81;;;9.24;81.59
74578;BME280;63173;49.086;33.418;2022-10-04T22:57:10;100722.81;;;9.23;81.43
74578;BME280;63173;49.086;33.418;2022-10-04T22:59:41;100715.75;;;9.22;81.06
74578;BME280;63173;49.086;33.418;2022-10-04T23:02:14;100716.84;;;9.21;81.05
74578;BME280;63173;49.086;33.418;2022-10-04T23:04:44;100723.59;;;9.18;80.54
74578;BME280;63173;49.086;33.418;2022-10-04T23:07:10;100727.66;;;9.16;81.53
74578;BME280;63173;49.086;33.418;2022-10-04T23:09:35;100726.31;;;9.18;80.86
74578;BME280;63173;49.086;33.418;2022-10-04T23:12:01;100726.81;;;9.10;82.14
74578;BME280;63173;49.086;33.418;2022-10-04T23:14:26;100730.63;;;9.14;81.75
74578;BME280;63173;49.086;33.418;2022-10-04T23:16:52;100740.13;;;9.17;81.89
74578;BME280;63173;49.086;33.418;2022-10-04T23:19:17;100732.78;;;9.12;80.89
74578;BME280;63173;49.086;33.418;2022-10-04T23:21:46;100740.91;;;9.07;81.48
74578;BME280;63173;49.086;33.418;2022-10-04T23:24:18;100740.91;;;9.07;81.71
74578;BME280;63173;49.086;33.418;2022-10-04T23:26:46;100740.63;;;9.04;83.11
74578;BME280;63173;49.086;33.418;2022-10-04T23:29:17;100743.34;;;8.99;83.06
74578;BME280;63173;49.086;33.418;2022-10-04T23:31:43;100747.38;;;9.01;82.66
74578;BME280;63173;49.086;33.418;2022-10-04T23:34:20;100751.69;;;8.97;83.08
74578;BME280;63173;49.086;33.418;2022-10-04T23:36:48;100751.69;;;8.97;83.30
74578;BME280;63173;49.086;33.418;2022-10-04T23:39:23;100750.38;;;9.05;82.95